Terminal Aerodrome Forecast
Issued by NWS Denver/Boulder, CO

Home | Current Version | Previous Version | Text Only | Print | Product List | Glossary On
Versions: 1 2 3 4 5 6 7 8 9 10 11 12 13 14 15 16 17 18 19 20 21 22 23 24 25 26 27 28 29 30 31 32 33 34 35 36 37 38 39 40 41 42 43 44 45 46 47 48 49 50
000
FTUS45 KBOU 230306 AAC
TAFDEN
TAF AMD
KDEN 230306Z 2303/2406 19012KT P6SM FEW110 SCT140 BKN220
     FM230500 22011KT P6SM SCT220
     FM231530 24015G25KT P6SM SCT220
     FM231800 23020G35KT P6SM FEW120 SCT220
     FM232300 25012G25KT P6SM FEW100 SCT150 BKN220
     FM240300 01014G25KT P6SM VCSH SCT030 OVC060=

USA.gov is the U.S. government's official web portal to all federal, state and local government web resources and services.